sensor_id;sensor_type;location;lat;lon;timestamp;P1;durP1;ratioP1;P2;durP2;ratioP2
26311;SDS011;14019;56.964;24.016;2023-01-15T00:00:50;10.43;;;4.68;;
26311;SDS011;14019;56.964;24.016;2023-01-15T00:03:37;11.48;;;5.50;;
26311;SDS011;14019;56.964;24.016;2023-01-15T00:06:24;11.23;;;5.30;;
26311;SDS011;14019;56.964;24.016;2023-01-15T00:09:12;9.63;;;5.28;;
26311;SDS011;14019;56.964;24.016;2023-01-15T00:11:58;11.82;;;5.35;;
26311;SDS011;14019;56.964;24.016;2023-01-15T00:14:47;12.75;;;5.65;;
26311;SDS011;14019;56.964;24.016;2023-01-15T00:17:33;10.63;;;5.70;;
26311;SDS011;14019;56.964;24.016;2023-01-15T00:20:19;10.52;;;5.78;;
26311;SDS011;14019;56.964;24.016;2023-01-15T00:23:06;11.75;;;6.20;;
26311;SDS011;14019;56.964;24.016;2023-01-15T00:26:16;13.15;;;6.13;;
26311;SDS011;14019;56.964;24.016;2023-01-15T00:29:22;12.00;;;6.10;;
26311;SDS011;14019;56.964;24.016;2023-01-15T00:32:09;13.18;;;6.68;;
26311;SDS011;14019;56.964;24.016;2023-01-15T00:34:56;15.70;;;7.18;;
26311;SDS011;14019;56.964;24.016;2023-01-15T00:37:43;15.60;;;7.40;;
26311;SDS011;14019;56.964;24.016;2023-01-15T00:40:30;15.93;;;7.32;;
26311;SDS011;14019;56.964;24.016;2023-01-15T00:43:16;17.48;;;7.93;;
26311;SDS011;14019;56.964;24.016;2023-01-15T00:46:02;15.80;;;8.10;;
26311;SDS011;14019;56.964;24.016;2023-01-15T00:48:50;18.95;;;8.45;;
26311;SDS011;14019;56.964;24.016;2023-01-15T00:51:36;17.50;;;8.43;;
26311;SDS011;14019;56.964;24.016;2023-01-15T00:54:22;17.67;;;8.65;;
26311;SDS011;14019;56.964;24.016;2023-01-15T00:57:10;18.73;;;8.50;;
26311;SDS011;14019;56.964;24.016;2023-01-15T00:59:56;16.13;;;8.55;;
26311;SDS011;14019;56.964;24.016;2023-01-15T01:02:42;18.48;;;9.25;;
26311;SDS011;14019;56.964;24.016;2023-01-15T01:05:30;16.50;;;8.60;;
26311;SDS011;14019;56.964;24.016;2023-01-15T01:08:17;18.33;;;9.05;;
26311;SDS011;14019;56.964;24.016;2023-01-15T01:11:04;18.67;;;9.15;;
26311;SDS011;14019;56.964;24.016;2023-01-15T01:13:53;16.38;;;8.90;;
26311;SDS011;14019;56.964;24.016;2023-01-15T01:16:40;18.17;;;9.13;;
26311;SDS011;14019;56.964;24.016;2023-01-15T01:19:26;19.33;;;8.93;;
26311;SDS011;14019;56.964;24.016;2023-01-15T01:22:13;20.00;;;9.75;;
26311;SDS011;14019;56.964;24.016;2023-01-15T01:24:59;19.63;;;8.77;;
26311;SDS011;14019;56.964;24.016;2023-01-15T01:27:45;20.30;;;9.18;;
26311;SDS011;14019;56.964;24.016;2023-01-15T01:30:31;19.92;;;9.50;;
26311;SDS011;14019;56.964;24.016;2023-01-15T01:33:18;21.63;;;9.27;;
26311;SDS011;14019;56.964;24.016;2023-01-15T01:38:15;20.15;;;9.25;;
26311;SDS011;14019;56.964;24.016;2023-01-15T01:41:02;15.95;;;8.63;;
26311;SDS011;14019;56.964;24.016;2023-01-15T01:43:53;18.48;;;8.57;;
26311;SDS011;14019;56.964;24.016;2023-01-15T01:46:40;16.52;;;8.38;;
26311;SDS011;14019;56.964;24.016;2023-01-15T01:49:27;19.00;;;8.68;;
26311;SDS011;14019;56.964;24.016;2023-01-15T01:52:56;17.55;;;8.30;;
26311;SDS011;14019;56.964;24.016;2023-01-15T01:55:23;17.45;;;8.55;;
26311;SDS011;14019;56.964;24.016;2023-01-15T01:58:11;16.88;;;8.30;;
26311;SDS011;14019;56.964;24.016;2023-01-15T02:00:58;14.55;;;7.68;;
26311;SDS011;14019;56.964;24.016;2023-01-15T02:03:45;21.92;;;8.10;;
26311;SDS011;14019;56.964;24.016;2023-01-15T02:06:31;15.98;;;7.22;;
26311;SDS011;14019;56.964;24.016;2023-01-15T02:09:18;16.67;;;7.38;;
26311;SDS011;14019;56.964;24.016;2023-01-15T02:12:10;14.90;;;7.25;;
26311;SDS011;14019;56.964;24.016;2023-01-15T02:15:14;16.27;;;7.68;;
26311;SDS011;14019;56.964;24.016;2023-01-15T02:18:18;12.68;;;7.05;;
26311;SDS011;14019;56.964;24.016;2023-01-15T02:29:38;17.10;;;7.95;;
26311;SDS011;14019;56.964;24.016;2023-01-15T02:35:15;14.25;;;6.88;;
26311;SDS011;14019;56.964;24.016;2023-01-15T02:38:07;14.32;;;7.55;;
26311;SDS011;14019;56.964;24.016;2023-01-15T02:40:56;15.65;;;7.57;;
26311;SDS011;14019;56.964;24.016;2023-01-15T02:43:45;13.60;;;6.75;;
26311;SDS011;14019;56.964;24.016;2023-01-15T02:46:34;12.00;;;6.65;;
26311;SDS011;14019;56.964;24.016;2023-01-15T02:49:24;16.13;;;7.45;;
26311;SDS011;14019;56.964;24.016;2023-01-15T02:52:17;15.10;;;6.95;;
26311;SDS011;14019;56.964;24.016;2023-01-15T02:55:40;11.55;;;6.43;;
26311;SDS011;14019;56.964;24.016;2023-01-15T02:58:22;16.33;;;7.53;;
26311;SDS011;14019;56.964;24.016;2023-01-15T03:01:15;14.10;;;6.90;;
26311;SDS011;14019;56.964;24.016;2023-01-15T03:04:09;13.60;;;7.18;;
26311;SDS011;14019;56.964;24.016;2023-01-15T03:07:45;14.93;;;6.80;;
26311;SDS011;14019;56.964;24.016;2023-01-15T03:10:05;15.98;;;7.75;;
26311;SDS011;14019;56.964;24.016;2023-01-15T03:13:01;15.85;;;7.75;;
26311;SDS011;14019;56.964;24.016;2023-01-15T03:22:18;14.23;;;7.00;;
26311;SDS011;14019;56.964;24.016;2023-01-15T03:25:18;15.13;;;7.53;;
26311;SDS011;14019;56.964;24.016;2023-01-15T03:28:08;20.10;;;7.35;;
26311;SDS011;14019;56.964;24.016;2023-01-15T03:30:57;15.07;;;7.38;;
26311;SDS011;14019;56.964;24.016;2023-01-15T03:33:44;17.17;;;7.82;;
26311;SDS011;14019;56.964;24.016;2023-01-15T03:36:36;15.30;;;6.97;;
26311;SDS011;14019;56.964;24.016;2023-01-15T03:39:23;14.30;;;7.75;;
26311;SDS011;14019;56.964;24.016;2023-01-15T03:53:53;13.48;;;7.35;;
26311;SDS011;14019;56.964;24.016;2023-01-15T04:00:21;13.05;;;7.22;;
26311;SDS011;14019;56.964;24.016;2023-01-15T04:03:13;16.52;;;7.82;;
26311;SDS011;14019;56.964;24.016;2023-01-15T04:06:00;15.93;;;8.13;;
26311;SDS011;14019;56.964;24.016;2023-01-15T04:08:48;15.13;;;7.60;;
26311;SDS011;14019;56.964;24.016;2023-01-15T04:11:36;14.35;;;8.20;;
26311;SDS011;14019;56.964;24.016;2023-01-15T04:14:31;17.60;;;7.53;;
26311;SDS011;14019;56.964;24.016;2023-01-15T04:17:23;15.82;;;8.18;;
26311;SDS011;14019;56.964;24.016;2023-01-15T04:20:10;18.23;;;8.40;;
26311;SDS011;14019;56.964;24.016;2023-01-15T04:22:59;16.13;;;8.45;;
26311;SDS011;14019;56.964;24.016;2023-01-15T04:25:45;17.45;;;9.00;;
26311;SDS011;14019;56.964;24.016;2023-01-15T04:28:31;21.02;;;9.27;;
26311;SDS011;14019;56.964;24.016;2023-01-15T04:31:18;17.48;;;8.88;;
26311;SDS011;14019;56.964;24.016;2023-01-15T04:34:04;18.05;;;9.30;;
26311;SDS011;14019;56.964;24.016;2023-01-15T04:36:51;20.42;;;9.68;;
26311;SDS011;14019;56.964;24.016;2023-01-15T04:39:38;19.27;;;9.43;;
26311;SDS011;14019;56.964;24.016;2023-01-15T04:42:25;20.67;;;9.57;;
26311;SDS011;14019;56.964;24.016;2023-01-15T04:45:30;20.27;;;9.95;;
26311;SDS011;14019;56.964;24.016;2023-01-15T04:48:16;21.48;;;10.07;;
26311;SDS011;14019;56.964;24.016;2023-01-15T04:51:03;21.23;;;10.60;;
26311;SDS011;14019;56.964;24.016;2023-01-15T04:53:50;19.20;;;10.73;;
26311;SDS011;14019;56.964;24.016;2023-01-15T04:56:38;23.25;;;10.90;;
26311;SDS011;14019;56.964;24.016;2023-01-15T04:59:25;19.63;;;11.13;;
26311;SDS011;14019;56.964;24.016;2023-01-15T05:02:11;23.08;;;11.10;;
26311;SDS011;14019;56.964;24.016;2023-01-15T05:04:59;21.17;;;11.70;;
26311;SDS011;14019;56.964;24.016;2023-01-15T05:07:46;23.15;;;11.15;;
26311;SDS011;14019;56.964;24.016;2023-01-15T05:10:32;23.13;;;11.57;;
26311;SDS011;14019;56.964;24.016;2023-01-15T05:13:19;27.23;;;11.57;;
26311;SDS011;14019;56.964;24.016;2023-01-15T05:16:09;23.17;;;11.52;;
26311;SDS011;14019;56.964;24.016;2023-01-15T05:18:58;24.63;;;10.80;;
26311;SDS011;14019;56.964;24.016;2023-01-15T05:21:46;25.40;;;11.80;;
26311;SDS011;14019;56.964;24.016;2023-01-15T05:24:33;24.75;;;11.27;;
26311;SDS011;14019;56.964;24.016;2023-01-15T05:27:19;21.52;;;11.40;;
26311;SDS011;14019;56.964;24.016;2023-01-15T05:30:05;21.92;;;10.77;;
26311;SDS011;14019;56.964;24.016;2023-01-15T05:32:52;21.00;;;11.18;;
26311;SDS011;14019;56.964;24.016;2023-01-15T05:35:39;25.98;;;11.82;;
26311;SDS011;14019;56.964;24.016;2023-01-15T05:38:25;23.63;;;10.80;;
26311;SDS011;14019;56.964;24.016;2023-01-15T05:41:12;23.70;;;11.40;;
26311;SDS011;14019;56.964;24.016;2023-01-15T05:44:22;20.23;;;10.73;;
26311;SDS011;14019;56.964;24.016;2023-01-15T05:47:09;22.15;;;11.18;;
26311;SDS011;14019;56.964;24.016;2023-01-15T05:49:56;20.30;;;10.73;;
26311;SDS011;14019;56.964;24.016;2023-01-15T05:52:43;20.55;;;10.55;;
26311;SDS011;14019;56.964;24.016;2023-01-15T05:55:29;22.55;;;10.82;;
26311;SDS011;14019;56.964;24.016;2023-01-15T05:58:15;25.77;;;11.27;;
26311;SDS011;14019;56.964;24.016;2023-01-15T06:01:06;19.77;;;10.38;;
26311;SDS011;14019;56.964;24.016;2023-01-15T06:03:52;24.95;;;10.88;;
26311;SDS011;14019;56.964;24.016;2023-01-15T06:06:40;25.63;;;10.93;;
26311;SDS011;14019;56.964;24.016;2023-01-15T06:09:27;19.40;;;10.02;;
26311;SDS011;14019;56.964;24.016;2023-01-15T06:12:15;22.42;;;10.68;;
26311;SDS011;14019;56.964;24.016;2023-01-15T06:15:01;19.95;;;11.25;;
26311;SDS011;14019;56.964;24.016;2023-01-15T06:17:48;19.73;;;9.65;;
26311;SDS011;14019;56.964;24.016;2023-01-15T06:20:35;22.27;;;10.35;;
26311;SDS011;14019;56.964;24.016;2023-01-15T06:23:22;20.02;;;10.25;;
26311;SDS011;14019;56.964;24.016;2023-01-15T06:26:12;25.73;;;10.10;;
26311;SDS011;14019;56.964;24.016;2023-01-15T06:28:59;19.58;;;9.73;;
26311;SDS011;14019;56.964;24.016;2023-01-15T06:31:46;18.80;;;9.45;;
26311;SDS011;14019;56.964;24.016;2023-01-15T06:34:34;22.85;;;10.00;;
26311;SDS011;14019;56.964;24.016;2023-01-15T06:37:20;19.50;;;10.15;;
26311;SDS011;14019;56.964;24.016;2023-01-15T06:40:06;23.15;;;10.23;;
26311;SDS011;14019;56.964;24.016;2023-01-15T06:42:56;21.75;;;9.95;;
26311;SDS011;14019;56.964;24.016;2023-01-15T06:46:02;16.75;;;9.05;;
26311;SDS011;14019;56.964;24.016;2023-01-15T06:49:07;17.85;;;9.60;;
26311;SDS011;14019;56.964;24.016;2023-01-15T06:51:53;18.02;;;10.00;;
26311;SDS011;14019;56.964;24.016;2023-01-15T06:54:39;20.45;;;10.50;;
26311;SDS011;14019;56.964;24.016;2023-01-15T06:57:25;17.73;;;9.80;;
26311;SDS011;14019;56.964;24.016;2023-01-15T07:00:12;22.02;;;10.48;;
26311;SDS011;14019;56.964;24.016;2023-01-15T07:02:59;20.50;;;9.77;;
26311;SDS011;14019;56.964;24.016;2023-01-15T07:05:45;22.45;;;10.25;;
26311;SDS011;14019;56.964;24.016;2023-01-15T07:08:31;18.58;;;9.63;;
26311;SDS011;14019;56.964;24.016;2023-01-15T07:11:18;21.10;;;10.57;;
26311;SDS011;14019;56.964;24.016;2023-01-15T07:14:04;22.40;;;10.82;;
26311;SDS011;14019;56.964;24.016;2023-01-15T07:16:51;21.40;;;10.48;;
26311;SDS011;14019;56.964;24.016;2023-01-15T07:19:37;23.88;;;10.45;;
26311;SDS011;14019;56.964;24.016;2023-01-15T07:22:25;23.83;;;10.90;;
26311;SDS011;14019;56.964;24.016;2023-01-15T07:25:11;20.05;;;10.15;;
26311;SDS011;14019;56.964;24.016;2023-01-15T07:27:57;22.40;;;10.27;;
26311;SDS011;14019;56.964;24.016;2023-01-15T07:30:44;18.60;;;9.68;;
26311;SDS011;14019;56.964;24.016;2023-01-15T07:33:31;24.10;;;10.15;;
26311;SDS011;14019;56.964;24.016;2023-01-15T07:36:17;22.23;;;10.38;;
26311;SDS011;14019;56.964;24.016;2023-01-15T07:39:04;22.23;;;10.50;;
26311;SDS011;14019;56.964;24.016;2023-01-15T07:41:50;24.52;;;10.57;;
26311;SDS011;14019;56.964;24.016;2023-01-15T07:44:55;26.48;;;11.93;;
26311;SDS011;14019;56.964;24.016;2023-01-15T07:48:00;19.75;;;10.00;;
26311;SDS011;14019;56.964;24.016;2023-01-15T07:51:06;18.90;;;9.80;;
26311;SDS011;14019;56.964;24.016;2023-01-15T07:53:51;22.02;;;10.07;;
26311;SDS011;14019;56.964;24.016;2023-01-15T07:56:38;17.30;;;9.45;;
26311;SDS011;14019;56.964;24.016;2023-01-15T07:59:24;21.92;;;9.63;;
26311;SDS011;14019;56.964;24.016;2023-01-15T08:02:10;20.45;;;9.38;;
26311;SDS011;14019;56.964;24.016;2023-01-15T08:04:57;20.00;;;9.50;;
26311;SDS011;14019;56.964;24.016;2023-01-15T08:07:44;17.23;;;9.80;;
26311;SDS011;14019;56.964;24.016;2023-01-15T08:10:31;19.65;;;9.27;;
26311;SDS011;14019;56.964;24.016;2023-01-15T08:13:37;19.52;;;9.43;;
26311;SDS011;14019;56.964;24.016;2023-01-15T08:16:41;18.45;;;9.30;;
26311;SDS011;14019;56.964;24.016;2023-01-15T08:19:28;17.92;;;9.07;;
26311;SDS011;14019;56.964;24.016;2023-01-15T08:22:14;18.70;;;9.02;;
26311;SDS011;14019;56.964;24.016;2023-01-15T08:25:02;19.38;;;9.00;;
26311;SDS011;14019;56.964;24.016;2023-01-15T08:27:48;17.33;;;8.65;;
26311;SDS011;14019;56.964;24.016;2023-01-15T08:30:35;19.38;;;9.45;;
26311;SDS011;14019;56.964;24.016;2023-01-15T08:33:22;18.65;;;8.88;;
26311;SDS011;14019;56.964;24.016;2023-01-15T08:36:09;18.10;;;8.95;;
26311;SDS011;14019;56.964;24.016;2023-01-15T08:38:56;16.88;;;8.82;;
26311;SDS011;14019;56.964;24.016;2023-01-15T08:41:42;18.02;;;8.70;;
26311;SDS011;14019;56.964;24.016;2023-01-15T08:44:29;19.25;;;9.38;;
26311;SDS011;14019;56.964;24.016;2023-01-15T08:47:16;18.08;;;9.05;;
26311;SDS011;14019;56.964;24.016;2023-01-15T08:50:03;17.63;;;8.68;;
26311;SDS011;14019;56.964;24.016;2023-01-15T08:52:50;18.73;;;9.02;;
26311;SDS011;14019;56.964;24.016;2023-01-15T08:55:37;17.73;;;8.73;;
26311;SDS011;14019;56.964;24.016;2023-01-15T08:58:23;17.20;;;8.88;;
26311;SDS011;14019;56.964;24.016;2023-01-15T09:01:10;19.48;;;9.52;;
26311;SDS011;14019;56.964;24.016;2023-01-15T09:04:00;18.63;;;9.40;;
26311;SDS011;14019;56.964;24.016;2023-01-15T09:06:47;19.45;;;9.57;;
26311;SDS011;14019;56.964;24.016;2023-01-15T09:09:34;19.23;;;9.30;;
26311;SDS011;14019;56.964;24.016;2023-01-15T09:12:20;20.48;;;9.45;;
26311;SDS011;14019;56.964;24.016;2023-01-15T09:15:09;27.27;;;9.95;;
26311;SDS011;14019;56.964;24.016;2023-01-15T09:17:56;19.80;;;9.90;;
26311;SDS011;14019;56.964;24.016;2023-01-15T09:20:42;15.80;;;9.25;;
26311;SDS011;14019;56.964;24.016;2023-01-15T09:23:29;20.15;;;9.30;;
26311;SDS011;14019;56.964;24.016;2023-01-15T09:26:49;22.30;;;9.98;;
26311;SDS011;14019;56.964;24.016;2023-01-15T09:29:28;19.13;;;9.53;;
26311;SDS011;14019;56.964;24.016;2023-01-15T09:32:24;18.33;;;10.00;;
26311;SDS011;14019;56.964;24.016;2023-01-15T09:35:11;18.83;;;9.60;;
26311;SDS011;14019;56.964;24.016;2023-01-15T09:38:03;17.13;;;9.48;;
26311;SDS011;14019;56.964;24.016;2023-01-15T09:40:50;18.35;;;10.02;;
26311;SDS011;14019;56.964;24.016;2023-01-15T09:43:45;16.90;;;9.43;;
26311;SDS011;14019;56.964;24.016;2023-01-15T09:47:22;20.13;;;9.30;;
26311;SDS011;14019;56.964;24.016;2023-01-15T09:55:46;18.55;;;9.45;;
26311;SDS011;14019;56.964;24.016;2023-01-15T10:01:55;19.38;;;9.35;;
26311;SDS011;14019;56.964;24.016;2023-01-15T10:04:42;16.05;;;8.90;;
26311;SDS011;14019;56.964;24.016;2023-01-15T10:10:35;17.67;;;8.93;;
26311;SDS011;14019;56.964;24.016;2023-01-15T10:13:30;18.73;;;9.73;;
26311;SDS011;14019;56.964;24.016;2023-01-15T10:16:24;18.65;;;9.02;;
26311;SDS011;14019;56.964;24.016;2023-01-15T10:19:11;18.63;;;9.40;;
26311;SDS011;14019;56.964;24.016;2023-01-15T10:22:00;17.67;;;9.10;;
26311;SDS011;14019;56.964;24.016;2023-01-15T10:24:53;17.58;;;9.45;;
26311;SDS011;14019;56.964;24.016;2023-01-15T10:27:41;18.20;;;9.63;;
26311;SDS011;14019;56.964;24.016;2023-01-15T10:30:33;17.95;;;9.23;;
26311;SDS011;14019;56.964;24.016;2023-01-15T10:33:38;16.13;;;8.85;;
26311;SDS011;14019;56.964;24.016;2023-01-15T10:36:43;20.00;;;9.05;;
26311;SDS011;14019;56.964;24.016;2023-01-15T10:45:43;19.98;;;9.93;;
26311;SDS011;14019;56.964;24.016;2023-01-15T10:51:25;17.23;;;8.57;;
26311;SDS011;14019;56.964;24.016;2023-01-15T10:57:07;16.98;;;9.02;;
26311;SDS011;14019;56.964;24.016;2023-01-15T10:59:59;16.88;;;9.05;;
26311;SDS011;14019;56.964;24.016;2023-01-15T11:02:48;20.33;;;9.60;;
26311;SDS011;14019;56.964;24.016;2023-01-15T11:05:36;18.00;;;9.05;;
26311;SDS011;14019;56.964;24.016;2023-01-15T11:08:23;18.02;;;8.95;;
26311;SDS011;14019;56.964;24.016;2023-01-15T11:12:39;16.33;;;9.05;;
26311;SDS011;14019;56.964;24.016;2023-01-15T11:14:53;19.15;;;9.27;;
26311;SDS011;14019;56.964;24.016;2023-01-15T11:17:59;18.52;;;8.73;;
26311;SDS011;14019;56.964;24.016;2023-01-15T11:21:10;16.95;;;8.38;;
26311;SDS011;14019;56.964;24.016;2023-01-15T11:23:57;16.65;;;8.50;;
26311;SDS011;14019;56.964;24.016;2023-01-15T11:26:45;16.73;;;8.63;;
26311;SDS011;14019;56.964;24.016;2023-01-15T11:29:34;16.65;;;8.45;;
26311;SDS011;14019;56.964;24.016;2023-01-15T11:35:15;18.13;;;9.20;;
26311;SDS011;14019;56.964;24.016;2023-01-15T11:38:12;16.25;;;8.73;;
26311;SDS011;14019;56.964;24.016;2023-01-15T11:41:00;16.63;;;8.98;;
26311;SDS011;14019;56.964;24.016;2023-01-15T11:43:53;17.55;;;9.15;;
26311;SDS011;14019;56.964;24.016;2023-01-15T11:46:59;16.10;;;8.73;;
26311;SDS011;14019;56.964;24.016;2023-01-15T11:50:17;15.45;;;8.43;;
26311;SDS011;14019;56.964;24.016;2023-01-15T11:53:24;16.95;;;9.15;;
26311;SDS011;14019;56.964;24.016;2023-01-15T11:56:19;16.58;;;9.15;;
26311;SDS011;14019;56.964;24.016;2023-01-15T11:59:15;15.75;;;8.35;;
26311;SDS011;14019;56.964;24.016;2023-01-15T12:02:14;17.10;;;8.80;;
26311;SDS011;14019;56.964;24.016;2023-01-15T12:05:03;17.83;;;8.80;;
26311;SDS011;14019;56.964;24.016;2023-01-15T12:07:51;15.32;;;8.10;;
26311;SDS011;14019;56.964;24.016;2023-01-15T12:10:48;14.55;;;8.13;;
26311;SDS011;14019;56.964;24.016;2023-01-15T12:17:23;15.05;;;7.57;;
26311;SDS011;14019;56.964;24.016;2023-01-15T12:20:34;13.13;;;7.22;;
26311;SDS011;14019;56.964;24.016;2023-01-15T12:26:25;14.82;;;7.75;;
26311;SDS011;14019;56.964;24.016;2023-01-15T12:32:03;13.05;;;7.60;;
26311;SDS011;14019;56.964;24.016;2023-01-15T12:37:41;13.57;;;7.55;;
26311;SDS011;14019;56.964;24.016;2023-01-15T12:43:26;11.52;;;6.60;;
26311;SDS011;14019;56.964;24.016;2023-01-15T12:46:31;12.82;;;7.30;;
26311;SDS011;14019;56.964;24.016;2023-01-15T12:49:37;12.18;;;7.03;;
26311;SDS011;14019;56.964;24.016;2023-01-15T12:52:27;13.50;;;7.38;;
26311;SDS011;14019;56.964;24.016;2023-01-15T12:55:20;14.23;;;7.80;;
26311;SDS011;14019;56.964;24.016;2023-01-15T13:06:52;14.48;;;7.60;;
26311;SDS011;14019;56.964;24.016;2023-01-15T13:12:28;13.23;;;7.28;;
26311;SDS011;14019;56.964;24.016;2023-01-15T13:15:16;13.23;;;7.07;;
26311;SDS011;14019;56.964;24.016;2023-01-15T13:18:10;12.70;;;7.40;;
26311;SDS011;14019;56.964;24.016;2023-01-15T13:21:09;13.52;;;7.35;;
26311;SDS011;14019;56.964;24.016;2023-01-15T13:32:46;13.88;;;6.88;;
26311;SDS011;14019;56.964;24.016;2023-01-15T13:35:35;12.60;;;7.03;;
26311;SDS011;14019;56.964;24.016;2023-01-15T13:38:25;12.68;;;6.88;;
26311;SDS011;14019;56.964;24.016;2023-01-15T13:41:18;13.05;;;7.03;;
26311;SDS011;14019;56.964;24.016;2023-01-15T13:44:27;14.43;;;7.20;;
26311;SDS011;14019;56.964;24.016;2023-01-15T13:47:22;12.48;;;6.97;;
26311;SDS011;14019;56.964;24.016;2023-01-15T13:50:17;13.25;;;7.10;;
26311;SDS011;14019;56.964;24.016;2023-01-15T13:56:46;13.88;;;6.65;;
26311;SDS011;14019;56.964;24.016;2023-01-15T14:02:28;13.13;;;7.00;;
26311;SDS011;14019;56.964;24.016;2023-01-15T14:05:36;11.50;;;6.63;;
26311;SDS011;14019;56.964;24.016;2023-01-15T14:08:24;12.88;;;6.57;;
26311;SDS011;14019;56.964;24.016;2023-01-15T14:14:25;13.10;;;7.00;;
26311;SDS011;14019;56.964;24.016;2023-01-15T14:26:15;11.30;;;6.55;;
26311;SDS011;14019;56.964;24.016;2023-01-15T14:35:02;10.13;;;5.70;;
26311;SDS011;14019;56.964;24.016;2023-01-15T14:40:38;11.32;;;6.35;;
26311;SDS011;14019;56.964;24.016;2023-01-15T14:43:34;11.40;;;6.07;;
26311;SDS011;14019;56.964;24.016;2023-01-15T14:46:32;10.95;;;5.80;;
26311;SDS011;14019;56.964;24.016;2023-01-15T14:49:29;9.60;;;6.05;;
26311;SDS011;14019;56.964;24.016;2023-01-15T14:52:20;12.38;;;6.15;;
26311;SDS011;14019;56.964;24.016;2023-01-15T14:55:08;9.43;;;5.63;;
26311;SDS011;14019;56.964;24.016;2023-01-15T14:58:02;11.88;;;6.38;;
26311;SDS011;14019;56.964;24.016;2023-01-15T15:00:53;11.48;;;6.38;;
26311;SDS011;14019;56.964;24.016;2023-01-15T15:03:49;10.18;;;6.20;;
26311;SDS011;14019;56.964;24.016;2023-01-15T15:06:40;11.80;;;6.68;;
26311;SDS011;14019;56.964;24.016;2023-01-15T15:13:11;11.82;;;6.78;;
26311;SDS011;14019;56.964;24.016;2023-01-15T15:18:51;14.60;;;6.20;;
26311;SDS011;14019;56.964;24.016;2023-01-15T15:21:42;11.88;;;6.85;;
26311;SDS011;14019;56.964;24.016;2023-01-15T15:24:31;10.55;;;6.20;;
26311;SDS011;14019;56.964;24.016;2023-01-15T15:27:20;13.27;;;7.07;;
26311;SDS011;14019;56.964;24.016;2023-01-15T15:30:09;12.85;;;7.35;;
26311;SDS011;14019;56.964;24.016;2023-01-15T15:32:56;14.32;;;7.50;;
26311;SDS011;14019;56.964;24.016;2023-01-15T15:35:44;13.88;;;6.90;;
26311;SDS011;14019;56.964;24.016;2023-01-15T15:38:31;12.50;;;6.95;;
26311;SDS011;14019;56.964;24.016;2023-01-15T15:41:18;12.73;;;6.88;;
26311;SDS011;14019;56.964;24.016;2023-01-15T15:44:28;13.07;;;6.63;;
26311;SDS011;14019;56.964;24.016;2023-01-15T15:47:38;12.00;;;6.22;;
26311;SDS011;14019;56.964;24.016;2023-01-15T15:50:58;12.93;;;6.70;;
26311;SDS011;14019;56.964;24.016;2023-01-15T15:53:45;11.73;;;6.47;;
26311;SDS011;14019;56.964;24.016;2023-01-15T15:56:31;11.35;;;6.80;;
26311;SDS011;14019;56.964;24.016;2023-01-15T15:59:26;12.25;;;7.05;;
26311;SDS011;14019;56.964;24.016;2023-01-15T16:05:02;14.75;;;6.65;;
26311;SDS011;14019;56.964;24.016;2023-01-15T16:07:48;12.73;;;6.72;;
26311;SDS011;14019;56.964;24.016;2023-01-15T16:10:36;11.52;;;7.00;;
26311;SDS011;14019;56.964;24.016;2023-01-15T16:13:42;13.50;;;7.00;;
26311;SDS011;14019;56.964;24.016;2023-01-15T16:16:29;12.65;;;7.30;;
26311;SDS011;14019;56.964;24.016;2023-01-15T16:19:17;12.77;;;6.65;;
26311;SDS011;14019;56.964;24.016;2023-01-15T16:22:06;13.25;;;6.82;;
26311;SDS011;14019;56.964;24.016;2023-01-15T16:24:54;14.63;;;6.70;;
26311;SDS011;14019;56.964;24.016;2023-01-15T16:27:41;12.50;;;7.10;;
26311;SDS011;14019;56.964;24.016;2023-01-15T16:30:29;12.73;;;7.10;;
26311;SDS011;14019;56.964;24.016;2023-01-15T16:33:16;10.98;;;6.82;;
26311;SDS011;14019;56.964;24.016;2023-01-15T16:36:04;12.07;;;7.13;;
26311;SDS011;14019;56.964;24.016;2023-01-15T16:38:52;11.82;;;6.88;;
26311;SDS011;14019;56.964;24.016;2023-01-15T16:41:39;12.52;;;7.35;;
26311;SDS011;14019;56.964;24.016;2023-01-15T16:47:20;14.13;;;7.20;;
26311;SDS011;14019;56.964;24.016;2023-01-15T16:50:22;14.20;;;7.57;;
26311;SDS011;14019;56.964;24.016;2023-01-15T17:02:15;13.88;;;7.50;;
26311;SDS011;14019;56.964;24.016;2023-01-15T17:05:12;15.50;;;7.68;;
26311;SDS011;14019;56.964;24.016;2023-01-15T17:07:58;14.75;;;7.85;;
26311;SDS011;14019;56.964;24.016;2023-01-15T17:10:52;13.13;;;7.50;;
26311;SDS011;14019;56.964;24.016;2023-01-15T17:13:39;12.52;;;7.30;;
26311;SDS011;14019;56.964;24.016;2023-01-15T17:16:25;12.95;;;7.10;;
26311;SDS011;14019;56.964;24.016;2023-01-15T17:19:12;12.55;;;7.38;;
26311;SDS011;14019;56.964;24.016;2023-01-15T17:21:58;13.02;;;7.22;;
26311;SDS011;14019;56.964;24.016;2023-01-15T17:24:48;13.75;;;7.80;;
26311;SDS011;14019;56.964;24.016;2023-01-15T17:27:34;13.00;;;7.35;;
26311;SDS011;14019;56.964;24.016;2023-01-15T17:30:21;15.50;;;7.43;;
26311;SDS011;14019;56.964;24.016;2023-01-15T17:33:10;14.10;;;7.55;;
26311;SDS011;14019;56.964;24.016;2023-01-15T17:35:58;12.98;;;7.43;;
26311;SDS011;14019;56.964;24.016;2023-01-15T17:38:45;11.60;;;7.15;;
26311;SDS011;14019;56.964;24.016;2023-01-15T17:41:46;11.18;;;6.63;;
26311;SDS011;14019;56.964;24.016;2023-01-15T17:44:32;13.68;;;7.68;;
26311;SDS011;14019;56.964;24.016;2023-01-15T17:47:20;12.80;;;7.30;;
26311;SDS011;14019;56.964;24.016;2023-01-15T17:50:07;12.60;;;7.50;;
26311;SDS011;14019;56.964;24.016;2023-01-15T17:52:53;13.68;;;7.55;;
26311;SDS011;14019;56.964;24.016;2023-01-15T17:55:39;11.40;;;7.35;;
26311;SDS011;14019;56.964;24.016;2023-01-15T17:58:45;13.25;;;7.53;;
26311;SDS011;14019;56.964;24.016;2023-01-15T18:01:50;13.32;;;7.55;;
26311;SDS011;14019;56.964;24.016;2023-01-15T18:04:56;12.60;;;7.22;;
26311;SDS011;14019;56.964;24.016;2023-01-15T18:08:04;12.88;;;7.53;;
26311;SDS011;14019;56.964;24.016;2023-01-15T18:10:58;13.32;;;7.35;;
26311;SDS011;14019;56.964;24.016;2023-01-15T18:13:44;12.52;;;7.25;;
26311;SDS011;14019;56.964;24.016;2023-01-15T18:16:30;13.68;;;7.72;;
26311;SDS011;14019;56.964;24.016;2023-01-15T18:19:19;11.93;;;7.15;;
26311;SDS011;14019;56.964;24.016;2023-01-15T18:22:06;14.80;;;7.97;;
26311;SDS011;14019;56.964;24.016;2023-01-15T18:24:54;14.40;;;7.82;;
26311;SDS011;14019;56.964;24.016;2023-01-15T18:27:41;13.50;;;7.85;;
26311;SDS011;14019;56.964;24.016;2023-01-15T18:30:28;12.90;;;7.80;;
26311;SDS011;14019;56.964;24.016;2023-01-15T18:33:14;12.48;;;7.45;;
26311;SDS011;14019;56.964;24.016;2023-01-15T18:36:02;13.65;;;7.97;;
26311;SDS011;14019;56.964;24.016;2023-01-15T18:38:49;13.95;;;7.88;;
26311;SDS011;14019;56.964;24.016;2023-01-15T18:41:36;12.68;;;7.47;;
26311;SDS011;14019;56.964;24.016;2023-01-15T18:44:22;13.35;;;7.78;;
26311;SDS011;14019;56.964;24.016;2023-01-15T18:47:29;14.32;;;7.80;;
26311;SDS011;14019;56.964;24.016;2023-01-15T18:50:16;13.15;;;7.90;;
26311;SDS011;14019;56.964;24.016;2023-01-15T18:53:03;13.38;;;7.35;;
26311;SDS011;14019;56.964;24.016;2023-01-15T18:55:52;12.77;;;7.70;;
26311;SDS011;14019;56.964;24.016;2023-01-15T18:58:41;15.32;;;8.25;;
26311;SDS011;14019;56.964;24.016;2023-01-15T19:01:27;17.67;;;9.25;;